Terminal Aerodrome Forecast
Issued by NWS Buffalo, NY

Home | Current Version | Previous Version | Text Only | Print | Product List | Glossary On
Versions: 1 2 3 4 5 6 7 8 9 10 11 12 13 14 15 16 17 18 19 20 21 22 23 24 25 26 27
156
FTUS41 KBUF 041120
TAFBUF
TAF
KBUF 041120Z 0412/0512 VRB03KT P6SM SCT200
     FM041500 09005KT P6SM BKN070
     FM041800 06010KT P6SM BKN050
     FM050000 05007KT P6SM BKN100
     FM050900 05005KT P6SM BKN040=

USA.gov is the U.S. government's official web portal to all federal, state and local government web resources and services.